Time;durP1;ratioP1;P1;durP2;ratioP2;P2;SDS_P1;SDS_P2;PMS_P1;PMS_P2;Temp;Humidity;BMP_temperature;BMP_pressure;BME280_temperature;BME280_humidity;BME280_pressure;Samples;Min_cycle;Max_cycle;Signal;HPM_P1;HPM_P2
2023/09/16 00:00:08;;;;;;;;;;;24.40;99.90;;;;;;5071727;28;19909;-73
2023/09/16 00:02:34;;;;;;;;;;;24.40;99.90;;;;;;5053269;28;20384;-71
2023/09/16 00:05:00;;;;;;;;;;;24.40;99.90;;;;;;5052504;28;20469;-71
2023/09/16 00:07:29;;;;;;;;;;;24.40;99.90;;;;;;5071289;28;19952;-71
2023/09/16 00:09:58;;;;;;;;;;;24.30;99.90;;;;;;5070687;28;19912;-70
2023/09/16 00:12:24;;;;;;;;;;;24.30;99.90;;;;;;5071049;28;19950;-69
2023/09/16 00:14:51;;;;;;;;;;;24.20;99.90;;;;;;5070829;28;19947;-70
2023/09/16 00:17:17;;;;;;;;;;;24.20;99.90;;;;;;5070775;28;19959;-71
2023/09/16 00:19:43;;;;;;;;;;;24.20;99.90;;;;;;5055294;28;19909;-70
2023/09/16 00:22:10;;;;;;;;;;;24.20;99.90;;;;;;5056033;28;19916;-70
2023/09/16 00:24:39;;;;;;;;;;;24.10;99.90;;;;;;5074513;28;20007;-70
2023/09/16 00:27:07;;;;;;;;;;;24.10;99.90;;;;;;5074354;28;19956;-70
2023/09/16 00:29:33;;;;;;;;;;;24.10;99.90;;;;;;5074363;28;19908;-70
2023/09/16 00:32:04;;;;;;;;;;;24.10;99.90;;;;;;5074233;28;19924;-70
2023/09/16 00:34:30;;;;;;;;;;;24.10;99.90;;;;;;5055996;28;19909;-70
2023/09/16 00:36:56;;;;;;;;;;;24.10;99.90;;;;;;5074440;28;19973;-71
2023/09/16 00:39:22;;;;;;;;;;;24.20;99.90;;;;;;5056467;28;19908;-71
2023/09/16 00:41:48;;;;;;;;;;;24.20;99.90;;;;;;5074582;28;19916;-70
2023/09/16 00:44:14;;;;;;;;;;;24.10;99.90;;;;;;5074518;28;20070;-71
2023/09/16 00:46:40;;;;;;;;;;;24.00;99.90;;;;;;5074533;28;20345;-71
2023/09/16 00:49:05;;;;;;;;;;;23.90;99.90;;;;;;5074156;28;19912;-71
2023/09/16 00:51:32;;;;;;;;;;;23.90;99.90;;;;;;5074247;28;19951;-71
2023/09/16 00:53:59;;;;;;;;;;;23.90;99.90;;;;;;5074213;28;19908;-71
2023/09/16 00:56:27;;;;;;;;;;;23.90;99.90;;;;;;5073970;28;19924;-71
2023/09/16 00:58:57;;;;;;;;;;;23.80;99.90;;;;;;5074126;28;19912;-71
2023/09/16 01:01:24;;;;;;;;;;;23.90;99.90;;;;;;5074240;28;19909;-71
2023/09/16 01:03:51;;;;;;;;;;;23.90;99.90;;;;;;5073798;28;19952;-71
2023/09/16 01:06:17;;;;;;;;;;;23.90;99.90;;;;;;5074155;28;19917;-70
2023/09/16 01:08:44;;;;;;;;;;;23.90;99.90;;;;;;5073855;28;19970;-70
2023/09/16 01:11:10;;;;;;;;;;;23.80;99.90;;;;;;5073672;28;19908;-72
2023/09/16 01:13:37;;;;;;;;;;;23.80;99.90;;;;;;5055330;28;20052;-70
2023/09/16 01:16:08;;;;;;;;;;;23.70;99.90;;;;;;5073614;28;20273;-70
2023/09/16 01:18:40;;;;;;;;;;;23.70;99.90;;;;;;5055147;28;20486;-71
2023/09/16 01:21:07;;;;;;;;;;;23.70;99.90;;;;;;5073144;28;19909;-71
2023/09/16 01:23:33;;;;;;;;;;;23.70;99.90;;;;;;5073217;28;19986;-70
2023/09/16 01:25:59;;;;;;;;;;;23.80;99.90;;;;;;5055143;28;19915;-71
2023/09/16 01:28:25;;;;;;;;;;;23.80;99.90;;;;;;5073114;28;19908;-70
2023/09/16 01:30:55;;;;;;;;;;;23.80;99.90;;;;;;5054818;28;19920;-71
2023/09/16 01:33:32;;;;;;;;;;;23.80;99.90;;;;;;5073472;28;19908;-71
2023/09/16 01:36:01;;;;;;;;;;;23.80;99.90;;;;;;5073184;28;19974;-71
2023/09/16 01:38:27;;;;;;;;;;;23.80;99.90;;;;;;5073783;28;19908;-72
2023/09/16 01:40:54;;;;;;;;;;;23.80;99.90;;;;;;5073246;28;19961;-72
2023/09/16 01:43:20;;;;;;;;;;;23.80;99.90;;;;;;5072961;28;19926;-71
2023/09/16 01:45:46;;;;;;;;;;;23.80;99.90;;;;;;5073380;28;19995;-70
2023/09/16 01:48:14;;;;;;;;;;;23.80;99.90;;;;;;5073058;28;20061;-71
2023/09/16 01:50:40;;;;;;;;;;;23.80;99.90;;;;;;5072823;28;19943;-70
2023/09/16 01:53:07;;;;;;;;;;;23.70;99.90;;;;;;5072718;28;19915;-70
2023/09/16 01:55:33;;;;;;;;;;;23.80;99.90;;;;;;5073064;28;19995;-70
2023/09/16 01:57:59;;;;;;;;;;;23.80;99.90;;;;;;5072726;28;19919;-71
2023/09/16 02:00:24;;;;;;;;;;;23.80;99.90;;;;;;5072971;28;19909;-71
2023/09/16 02:02:51;;;;;;;;;;;23.70;99.90;;;;;;5072921;28;19908;-70
2023/09/16 02:05:17;;;;;;;;;;;23.70;99.90;;;;;;5072372;28;20021;-70
2023/09/16 02:07:42;;;;;;;;;;;23.80;99.90;;;;;;5054499;28;19994;-70
2023/09/16 02:10:09;;;;;;;;;;;23.80;99.90;;;;;;5072920;28;19988;-71
2023/09/16 02:12:35;;;;;;;;;;;23.80;99.90;;;;;;5072540;28;20016;-71
2023/09/16 02:15:03;;;;;;;;;;;23.80;99.90;;;;;;5072891;28;20368;-70
2023/09/16 02:17:29;;;;;;;;;;;23.80;99.90;;;;;;5072502;28;19917;-71
2023/09/16 02:19:55;;;;;;;;;;;23.80;99.90;;;;;;5072300;28;19920;-71
2023/09/16 02:22:20;;;;;;;;;;;23.70;99.90;;;;;;5072244;28;19931;-69
2023/09/16 02:24:47;;;;;;;;;;;23.60;99.90;;;;;;5072453;28;19909;-71
2023/09/16 02:27:12;;;;;;;;;;;23.60;99.90;;;;;;5072576;28;20298;-70
2023/09/16 02:29:38;;;;;;;;;;;23.60;99.90;;;;;;5054055;28;19923;-71
2023/09/16 02:32:04;;;;;;;;;;;23.60;99.90;;;;;;5072519;28;19954;-71
2023/09/16 02:34:33;;;;;;;;;;;23.60;99.90;;;;;;5071949;28;20348;-72
2023/09/16 02:36:59;;;;;;;;;;;23.60;99.90;;;;;;5071618;28;20279;-70
2023/09/16 02:39:25;;;;;;;;;;;23.70;99.90;;;;;;5053813;28;20324;-70
2023/09/16 02:41:51;;;;;;;;;;;23.70;99.90;;;;;;5071069;28;19908;-70
2023/09/16 02:44:17;;;;;;;;;;;23.70;99.90;;;;;;5053639;28;19935;-70
2023/09/16 02:46:43;;;;;;;;;;;23.70;99.90;;;;;;5072107;28;20253;-71
2023/09/16 02:49:08;;;;;;;;;;;23.70;99.90;;;;;;5071372;28;19909;-70
2023/09/16 02:51:34;;;;;;;;;;;23.70;99.90;;;;;;5053680;28;20046;-71
2023/09/16 02:54:01;;;;;;;;;;;23.70;99.90;;;;;;5071446;28;19908;-70
2023/09/16 02:56:27;;;;;;;;;;;23.70;99.90;;;;;;5071324;28;19924;-71
2023/09/16 02:58:53;;;;;;;;;;;23.60;99.90;;;;;;5071660;28;19914;-70
2023/09/16 03:01:19;;;;;;;;;;;23.60;99.90;;;;;;5071504;28;19991;-70
2023/09/16 03:03:45;;;;;;;;;;;23.60;99.90;;;;;;5071534;28;19912;-72
2023/09/16 03:06:11;;;;;;;;;;;23.50;99.90;;;;;;5071541;28;19994;-70
2023/09/16 03:08:37;;;;;;;;;;;23.60;99.90;;;;;;5072494;28;19909;-71
2023/09/16 03:11:03;;;;;;;;;;;23.60;99.90;;;;;;5072018;28;19948;-70
2023/09/16 03:13:29;;;;;;;;;;;23.60;99.90;;;;;;5071933;28;20233;-69
2023/09/16 03:16:14;;;;;;;;;;;23.70;99.90;;;;;;5071910;28;19966;-70
2023/09/16 03:18:41;;;;;;;;;;;23.70;99.90;;;;;;5072020;28;19913;-70
2023/09/16 03:21:07;;;;;;;;;;;23.70;99.90;;;;;;5071627;28;19999;-72
2023/09/16 03:23:33;;;;;;;;;;;23.70;99.90;;;;;;5071989;28;19947;-71
2023/09/16 03:25:59;;;;;;;;;;;23.60;99.90;;;;;;5072257;28;19974;-71
2023/09/16 03:28:25;;;;;;;;;;;23.60;99.90;;;;;;5072175;28;20007;-71
2023/09/16 03:30:50;;;;;;;;;;;23.60;99.90;;;;;;5072421;28;19908;-71
2023/09/16 03:33:16;;;;;;;;;;;23.70;99.90;;;;;;5071932;28;19931;-70
2023/09/16 03:35:42;;;;;;;;;;;23.70;99.90;;;;;;5053400;28;19920;-70
2023/09/16 03:38:08;;;;;;;;;;;23.70;99.90;;;;;;5053833;28;20391;-70
2023/09/16 03:40:33;;;;;;;;;;;23.70;99.90;;;;;;5072220;28;19912;-70
2023/09/16 03:42:59;;;;;;;;;;;23.70;99.90;;;;;;5071877;28;19908;-70
2023/09/16 03:45:25;;;;;;;;;;;23.70;99.90;;;;;;5071902;28;20309;-70
2023/09/16 03:47:51;;;;;;;;;;;23.70;99.90;;;;;;5072208;28;19944;-70
2023/09/16 03:50:17;;;;;;;;;;;23.60;99.90;;;;;;5072107;28;20285;-70
2023/09/16 03:52:42;;;;;;;;;;;23.50;99.90;;;;;;5055386;28;19962;-70
2023/09/16 03:55:08;;;;;;;;;;;23.50;99.90;;;;;;5075930;28;20047;-70
2023/09/16 03:57:34;;;;;;;;;;;23.40;99.90;;;;;;5076295;28;20012;-70
2023/09/16 04:00:00;;;;;;;;;;;23.40;99.90;;;;;;5076093;28;19970;-70
2023/09/16 04:02:25;;;;;;;;;;;23.40;99.90;;;;;;5075773;28;19923;-70
2023/09/16 04:04:53;;;;;;;;;;;23.40;99.90;;;;;;5075784;28;20314;-71
2023/09/16 04:07:18;;;;;;;;;;;23.30;99.90;;;;;;5076031;28;19909;-71
2023/09/16 04:09:44;;;;;;;;;;;23.30;99.90;;;;;;5075600;28;20280;-70
2023/09/16 04:12:10;;;;;;;;;;;23.20;99.90;;;;;;5076083;28;20087;-71
2023/09/16 04:14:36;;;;;;;;;;;23.20;99.90;;;;;;5075469;28;20049;-72
2023/09/16 04:17:04;;;;;;;;;;;23.20;99.90;;;;;;5075831;28;19920;-70
2023/09/16 04:19:29;;;;;;;;;;;23.20;99.90;;;;;;5075682;28;19913;-71
2023/09/16 04:21:56;;;;;;;;;;;23.10;99.90;;;;;;5075875;28;19927;-71
2023/09/16 04:24:22;;;;;;;;;;;23.20;99.90;;;;;;5075923;28;19931;-70
2023/09/16 04:26:48;;;;;;;;;;;23.20;99.90;;;;;;5076211;28;20276;-72
2023/09/16 04:29:14;;;;;;;;;;;23.30;99.90;;;;;;5075941;28;19962;-70
2023/09/16 04:31:39;;;;;;;;;;;23.30;99.90;;;;;;5075760;28;20007;-71
2023/09/16 04:34:05;;;;;;;;;;;23.30;99.90;;;;;;5075696;28;19912;-70
2023/09/16 04:36:31;;;;;;;;;;;23.40;99.90;;;;;;5075481;28;20277;-72
2023/09/16 04:38:57;;;;;;;;;;;23.40;99.90;;;;;;5075674;28;19915;-71
2023/09/16 04:41:24;;;;;;;;;;;23.50;99.90;;;;;;5076039;28;19908;-71
2023/09/16 04:43:49;;;;;;;;;;;23.50;99.90;;;;;;5075520;28;19912;-71
2023/09/16 04:46:16;;;;;;;;;;;23.50;99.90;;;;;;5057426;28;19912;-70
2023/09/16 04:48:43;;;;;;;;;;;23.50;99.90;;;;;;5057403;28;19915;-70
2023/09/16 04:51:09;;;;;;;;;;;23.40;99.90;;;;;;5075181;28;20254;-70
2023/09/16 04:53:35;;;;;;;;;;;23.40;99.90;;;;;;5075338;28;19924;-71
2023/09/16 04:56:01;;;;;;;;;;;23.30;99.90;;;;;;5075803;28;19992;-70
2023/09/16 04:58:27;;;;;;;;;;;23.20;99.90;;;;;;5075154;28;19954;-70
2023/09/16 05:00:55;;;;;;;;;;;23.00;99.90;;;;;;5075478;28;19986;-72
2023/09/16 05:03:20;;;;;;;;;;;22.90;99.90;;;;;;5057045;28;20023;-72
2023/09/16 05:05:46;;;;;;;;;;;22.90;99.90;;;;;;5074627;28;20364;-71
2023/09/16 05:08:12;;;;;;;;;;;22.90;99.90;;;;;;5075039;28;20001;-70
2023/09/16 05:10:38;;;;;;;;;;;22.90;99.90;;;;;;5075274;28;19915;-70
2023/09/16 05:13:03;;;;;;;;;;;22.80;99.90;;;;;;5057038;28;19919;-71
2023/09/16 05:15:29;;;;;;;;;;;22.80;99.90;;;;;;5074902;28;19991;-70
2023/09/16 05:17:55;;;;;;;;;;;22.80;99.90;;;;;;5057457;28;19939;-70
2023/09/16 05:20:21;;;;;;;;;;;22.80;99.90;;;;;;5074855;28;19912;-71
2023/09/16 05:22:47;;;;;;;;;;;22.90;99.90;;;;;;5056848;28;19908;-71
2023/09/16 05:25:13;;;;;;;;;;;23.00;99.90;;;;;;5074709;28;20014;-70
2023/09/16 05:27:39;;;;;;;;;;;23.10;99.90;;;;;;5074375;28;20319;-70
2023/09/16 05:30:05;;;;;;;;;;;23.10;99.90;;;;;;5073968;28;20006;-70
2023/09/16 05:32:31;;;;;;;;;;;23.40;99.90;;;;;;5074424;28;20411;-70
2023/09/16 05:34:57;;;;;;;;;;;23.50;99.90;;;;;;5073973;28;19912;-70
2023/09/16 05:37:23;;;;;;;;;;;23.80;99.90;;;;;;5074477;28;19962;-70
2023/09/16 05:39:49;;;;;;;;;;;24.10;99.90;;;;;;5073901;28;19909;-70
2023/09/16 05:42:14;;;;;;;;;;;24.90;99.90;;;;;;5074249;28;20018;-71
2023/09/16 05:44:40;;;;;;;;;;;25.90;99.90;;;;;;5055358;28;20349;-71
2023/09/16 05:47:06;;;;;;;;;;;26.90;99.90;;;;;;5073858;28;19912;-71
2023/09/16 05:49:32;;;;;;;;;;;28.00;99.90;;;;;;5073549;28;20343;-71
2023/09/16 05:51:58;;;;;;;;;;;28.90;99.90;;;;;;5054967;28;19908;-71
2023/09/16 05:54:25;;;;;;;;;;;29.40;99.90;;;;;;5073038;28;20040;-70
2023/09/16 05:56:51;;;;;;;;;;;30.10;99.90;;;;;;5073025;28;19928;-70
2023/09/16 05:59:17;;;;;;;;;;;30.60;99.90;;;;;;5055218;28;19908;-72
2023/09/16 06:01:43;;;;;;;;;;;31.10;99.90;;;;;;5073105;28;19965;-71
2023/09/16 06:04:08;;;;;;;;;;;31.90;99.90;;;;;;5072890;28;20364;-72
2023/09/16 06:06:37;;;;;;;;;;;32.90;99.90;;;;;;5072057;28;19915;-72
2023/09/16 06:09:03;;;;;;;;;;;33.00;99.90;;;;;;5070670;28;19908;-73
2023/09/16 06:11:29;;;;;;;;;;;33.00;99.90;;;;;;5073023;28;19908;-72
2023/09/16 06:13:55;;;;;;;;;;;32.90;99.90;;;;;;5073089;28;19909;-72
2023/09/16 06:16:21;;;;;;;;;;;34.00;99.90;;;;;;5072512;28;20010;-72
2023/09/16 06:18:48;;;;;;;;;;;34.20;99.90;;;;;;5073897;28;19954;-70
2023/09/16 06:21:15;;;;;;;;;;;33.80;99.90;;;;;;5073109;28;19908;-73
2023/09/16 06:23:42;;;;;;;;;;;33.90;99.90;;;;;;5073271;28;19991;-72
2023/09/16 06:26:08;;;;;;;;;;;33.50;99.90;;;;;;5073384;28;19908;-72
2023/09/16 06:28:35;;;;;;;;;;;34.20;99.90;;;;;;5073111;28;19931;-72
2023/09/16 06:31:01;;;;;;;;;;;35.10;99.90;;;;;;5073251;28;19908;-72
2023/09/16 06:33:27;;;;;;;;;;;35.40;99.90;;;;;;5073597;28;19996;-71
2023/09/16 06:35:53;;;;;;;;;;;35.70;99.90;;;;;;5072679;28;20024;-72
2023/09/16 06:38:19;;;;;;;;;;;35.80;99.90;;;;;;5072881;28;19935;-72
2023/09/16 06:40:44;;;;;;;;;;;36.50;99.90;;;;;;5072950;28;20360;-72
2023/09/16 06:43:10;;;;;;;;;;;36.70;99.90;;;;;;5072894;28;20369;-72
2023/09/16 06:45:36;;;;;;;;;;;36.70;99.90;;;;;;5073248;28;19912;-72
2023/09/16 06:48:02;;;;;;;;;;;36.40;99.90;;;;;;5073080;28;19966;-72
2023/09/16 06:50:28;;;;;;;;;;;35.70;99.90;;;;;;5072596;28;20027;-74
2023/09/16 06:52:53;;;;;;;;;;;36.80;99.90;;;;;;5072613;28;19916;-71
2023/09/16 06:55:19;;;;;;;;;;;36.60;99.90;;;;;;5072462;28;20284;-71
2023/09/16 06:57:45;;;;;;;;;;;36.40;99.90;;;;;;5072849;28;20023;-71
2023/09/16 07:00:13;;;;;;;;;;;37.50;99.90;;;;;;5072537;28;19973;-72
2023/09/16 07:02:38;;;;;;;;;;;36.30;99.90;;;;;;5054331;28;19920;-71
2023/09/16 07:05:04;;;;;;;;;;;37.10;99.90;;;;;;5073056;28;19931;-73
2023/09/16 07:07:30;;;;;;;;;;;37.30;99.90;;;;;;5072551;28;20367;-72
2023/09/16 07:09:56;;;;;;;;;;;37.90;99.90;;;;;;5072312;28;19962;-72
2023/09/16 07:12:22;;;;;;;;;;;37.90;99.90;;;;;;5054013;28;19908;-72
2023/09/16 07:14:48;;;;;;;;;;;38.20;99.90;;;;;;5072716;28;19908;-72
2023/09/16 07:17:14;;;;;;;;;;;38.40;99.30;;;;;;5072011;28;20049;-71
2023/09/16 07:19:40;;;;;;;;;;;38.10;99.30;;;;;;5072159;28;20273;-74
2023/09/16 07:22:06;;;;;;;;;;;37.90;99.50;;;;;;5072267;28;20403;-71
2023/09/16 07:24:32;;;;;;;;;;;38.50;99.30;;;;;;5072584;28;20011;-72
2023/09/16 07:26:58;;;;;;;;;;;37.90;99.80;;;;;;5071869;28;19928;-72
2023/09/16 07:29:24;;;;;;;;;;;37.30;99.90;;;;;;5071969;28;20293;-72
2023/09/16 07:31:50;;;;;;;;;;;36.80;99.90;;;;;;5072073;28;19908;-72
2023/09/16 07:34:16;;;;;;;;;;;36.00;99.90;;;;;;5072294;28;20003;-71
2023/09/16 07:36:42;;;;;;;;;;;35.60;99.90;;;;;;5071205;28;19924;-72
2023/09/16 07:39:10;;;;;;;;;;;35.30;99.90;;;;;;5071101;28;20533;-71
2023/09/16 07:41:36;;;;;;;;;;;34.20;99.90;;;;;;5072242;28;20368;-73
2023/09/16 07:44:02;;;;;;;;;;;34.50;99.90;;;;;;5072141;28;19962;-72
2023/09/16 07:46:27;;;;;;;;;;;33.80;99.90;;;;;;5071927;28;19909;-71
2023/09/16 07:48:53;;;;;;;;;;;33.50;99.90;;;;;;5071011;28;19909;-71
2023/09/16 07:51:19;;;;;;;;;;;33.10;99.90;;;;;;5071129;28;19908;-73
2023/09/16 07:53:45;;;;;;;;;;;33.00;99.90;;;;;;5071506;28;19913;-73
2023/09/16 07:56:11;;;;;;;;;;;32.90;99.90;;;;;;5052810;28;19916;-71
2023/09/16 07:58:36;;;;;;;;;;;32.30;99.90;;;;;;5071071;28;19920;-71
2023/09/16 08:01:02;;;;;;;;;;;32.20;99.90;;;;;;5071104;28;19985;-70
2023/09/16 08:03:28;;;;;;;;;;;32.50;99.90;;;;;;5070969;28;20000;-72
2023/09/16 08:05:54;;;;;;;;;;;32.40;99.90;;;;;;5071084;28;19916;-72
2023/09/16 08:08:19;;;;;;;;;;;32.60;99.90;;;;;;5071207;28;20245;-72
2023/09/16 08:10:51;;;;;;;;;;;32.80;99.90;;;;;;5070876;28;20014;-72
2023/09/16 08:13:18;;;;;;;;;;;33.30;99.90;;;;;;5071233;28;19915;-72
2023/09/16 08:15:44;;;;;;;;;;;33.20;99.90;;;;;;5071014;28;19908;-71
2023/09/16 08:18:09;;;;;;;;;;;33.20;99.90;;;;;;5071888;28;19920;-71
2023/09/16 08:20:35;;;;;;;;;;;33.10;99.90;;;;;;5053425;28;19908;-71
2023/09/16 08:23:01;;;;;;;;;;;32.90;99.90;;;;;;5071577;28;20249;-71
2023/09/16 08:25:27;;;;;;;;;;;32.30;99.90;;;;;;5071880;28;20008;-72
2023/09/16 08:27:53;;;;;;;;;;;32.50;99.90;;;;;;5071689;28;20337;-72
2023/09/16 08:30:18;;;;;;;;;;;32.50;99.90;;;;;;5071809;28;19913;-72
2023/09/16 08:32:44;;;;;;;;;;;32.40;99.90;;;;;;5053867;28;20376;-71
2023/09/16 08:35:10;;;;;;;;;;;32.50;99.90;;;;;;5071222;28;19999;-71
2023/09/16 08:37:36;;;;;;;;;;;32.60;99.90;;;;;;5071822;28;20438;-72
2023/09/16 08:40:02;;;;;;;;;;;32.90;99.90;;;;;;5073800;28;20007;-71
2023/09/16 08:42:34;;;;;;;;;;;32.70;99.90;;;;;;5075490;28;19908;-72
2023/09/16 08:45:03;;;;;;;;;;;32.90;99.90;;;;;;5040671;28;20016;-71
2023/09/16 08:47:32;;;;;;;;;;;32.90;99.90;;;;;;5075002;28;19954;-72
2023/09/16 08:50:02;;;;;;;;;;;32.50;99.90;;;;;;5074452;28;19909;-72
2023/09/16 08:52:33;;;;;;;;;;;32.70;99.90;;;;;;5075015;28;19908;-72
2023/09/16 08:54:59;;;;;;;;;;;32.30;99.90;;;;;;5056969;28;20066;-71
2023/09/16 08:57:25;;;;;;;;;;;32.10;99.90;;;;;;5075205;28;20375;-71
2023/09/16 08:59:53;;;;;;;;;;;32.00;99.90;;;;;;5074623;28;19920;-72
2023/09/16 09:02:19;;;;;;;;;;;31.60;99.90;;;;;;5074633;28;20259;-73
2023/09/16 09:04:44;;;;;;;;;;;31.70;99.90;;;;;;5074620;28;20009;-72
2023/09/16 09:07:11;;;;;;;;;;;31.70;99.90;;;;;;5074521;28;19908;-72
2023/09/16 09:09:36;;;;;;;;;;;31.20;99.90;;;;;;5074669;28;20005;-72
2023/09/16 09:12:03;;;;;;;;;;;31.20;99.90;;;;;;5074062;28;19952;-71
2023/09/16 09:14:29;;;;;;;;;;;31.20;99.90;;;;;;5074214;28;19908;-70
2023/09/16 09:16:56;;;;;;;;;;;31.20;99.90;;;;;;5074306;28;19938;-71
2023/09/16 09:19:22;;;;;;;;;;;31.50;99.90;;;;;;5056593;28;19958;-72
2023/09/16 09:21:50;;;;;;;;;;;31.80;99.90;;;;;;5074284;28;19908;-72
2023/09/16 09:24:16;;;;;;;;;;;31.50;99.90;;;;;;5074763;28;19915;-71
2023/09/16 09:26:42;;;;;;;;;;;31.80;99.90;;;;;;5074523;28;19909;-70
2023/09/16 09:29:12;;;;;;;;;;;31.90;99.90;;;;;;5074930;28;19943;-70
2023/09/16 09:31:38;;;;;;;;;;;32.00;99.90;;;;;;5074316;28;19969;-72
2023/09/16 09:34:04;;;;;;;;;;;32.00;99.90;;;;;;5056029;28;20019;-73
2023/09/16 09:36:32;;;;;;;;;;;32.00;99.90;;;;;;5073517;28;20424;-72
2023/09/16 09:38:58;;;;;;;;;;;32.10;99.90;;;;;;5073924;28;19915;-71
2023/09/16 09:41:24;;;;;;;;;;;31.70;99.90;;;;;;5055701;28;19909;-73
2023/09/16 09:43:52;;;;;;;;;;;31.40;99.90;;;;;;5074259;28;19996;-72
2023/09/16 09:46:18;;;;;;;;;;;31.50;99.90;;;;;;5073897;28;19916;-71
2023/09/16 09:48:44;;;;;;;;;;;31.40;99.90;;;;;;5055817;28;20394;-70
2023/09/16 09:51:10;;;;;;;;;;;31.40;99.90;;;;;;5073536;28;19954;-72
2023/09/16 09:53:36;;;;;;;;;;;31.40;99.90;;;;;;5074033;28;20006;-72
2023/09/16 09:56:02;;;;;;;;;;;31.30;99.90;;;;;;5073560;28;20213;-72
2023/09/16 09:58:29;;;;;;;;;;;31.60;99.90;;;;;;5055400;28;19908;-72
2023/09/16 10:00:55;;;;;;;;;;;31.30;99.90;;;;;;5073472;28;19909;-71
2023/09/16 10:03:21;;;;;;;;;;;31.30;99.90;;;;;;5055132;28;19974;-71
2023/09/16 10:05:47;;;;;;;;;;;31.60;99.90;;;;;;5073146;28;20360;-71
2023/09/16 10:08:13;;;;;;;;;;;31.60;99.90;;;;;;5073834;28;20008;-71
2023/09/16 10:10:40;;;;;;;;;;;31.70;99.90;;;;;;5073877;28;19912;-70
2023/09/16 10:13:06;;;;;;;;;;;31.50;99.90;;;;;;5073723;28;19954;-72
2023/09/16 10:15:33;;;;;;;;;;;31.40;99.90;;;;;;5073935;28;20327;-71
2023/09/16 10:17:59;;;;;;;;;;;31.60;99.90;;;;;;5055241;28;19967;-71
2023/09/16 10:20:26;;;;;;;;;;;31.40;99.90;;;;;;5072470;28;19908;-71
2023/09/16 10:22:52;;;;;;;;;;;31.30;99.90;;;;;;5073249;28;20020;-71
2023/09/16 10:25:18;;;;;;;;;;;30.70;99.90;;;;;;5073614;28;19952;-73
2023/09/16 10:27:56;;;;;;;;;;;30.40;99.90;;;;;;5073155;28;19908;-71
2023/09/16 10:30:22;;;;;;;;;;;30.50;99.90;;;;;;5073370;28;19919;-71
2023/09/16 10:32:48;;;;;;;;;;;30.70;99.90;;;;;;5073374;28;19909;-71
2023/09/16 10:35:14;;;;;;;;;;;30.70;99.90;;;;;;5072872;28;19969;-71
2023/09/16 10:37:42;;;;;;;;;;;30.60;99.90;;;;;;5073502;28;20256;-71
2023/09/16 10:40:09;;;;;;;;;;;30.90;99.90;;;;;;5073299;28;19955;-71
2023/09/16 10:42:36;;;;;;;;;;;30.90;99.90;;;;;;5073229;28;19908;-72
2023/09/16 10:45:02;;;;;;;;;;;30.60;99.90;;;;;;5073211;28;20410;-71
2023/09/16 10:47:28;;;;;;;;;;;30.70;99.90;;;;;;5073222;28;19909;-72
2023/09/16 10:49:54;;;;;;;;;;;30.70;99.90;;;;;;5073179;28;19909;-72
2023/09/16 10:52:24;;;;;;;;;;;30.70;99.90;;;;;;5072817;28;20254;-71
2023/09/16 10:55:09;;;;;;;;;;;30.90;99.90;;;;;;5073650;28;20018;-71
2023/09/16 10:57:37;;;;;;;;;;;31.10;99.90;;;;;;5073037;28;20016;-71
2023/09/16 11:00:03;;;;;;;;;;;30.90;99.90;;;;;;5073489;28;20017;-71
2023/09/16 11:02:32;;;;;;;;;;;30.90;99.90;;;;;;5054562;28;19947;-71
2023/09/16 11:04:58;;;;;;;;;;;31.10;99.90;;;;;;5072859;28;19912;-71
2023/09/16 11:07:24;;;;;;;;;;;31.20;99.90;;;;;;5072872;28;19908;-71
2023/09/16 11:09:51;;;;;;;;;;;31.30;99.90;;;;;;5073318;28;19908;-71
2023/09/16 11:12:17;;;;;;;;;;;31.50;99.90;;;;;;5054437;28;19966;-71
2023/09/16 11:14:43;;;;;;;;;;;31.60;99.90;;;;;;5073011;28;19912;-71
2023/09/16 11:17:11;;;;;;;;;;;31.30;99.90;;;;;;5072483;28;20019;-71
2023/09/16 11:19:37;;;;;;;;;;;31.30;99.90;;;;;;5073045;28;19916;-70
2023/09/16 11:22:02;;;;;;;;;;;31.40;99.90;;;;;;5054556;28;19913;-70
2023/09/16 11:24:28;;;;;;;;;;;31.50;99.90;;;;;;5073306;28;19909;-70
2023/09/16 11:26:56;;;;;;;;;;;31.60;99.90;;;;;;5054818;28;19968;-70
2023/09/16 11:29:23;;;;;;;;;;;31.50;99.90;;;;;;5073253;28;19908;-70
2023/09/16 11:31:49;;;;;;;;;;;31.50;99.90;;;;;;5072795;28;19916;-72
2023/09/16 11:34:19;;;;;;;;;;;31.50;99.90;;;;;;5054805;28;19941;-70
2023/09/16 11:36:48;;;;;;;;;;;31.30;99.90;;;;;;5072257;28;19927;-71
2023/09/16 11:39:18;;;;;;;;;;;31.00;99.90;;;;;;5072747;28;19909;-70
2023/09/16 11:41:45;;;;;;;;;;;30.80;99.90;;;;;;5072736;28;20003;-71
2023/09/16 11:44:11;;;;;;;;;;;30.50;99.90;;;;;;5072654;28;19909;-73
2023/09/16 11:46:37;;;;;;;;;;;30.40;99.90;;;;;;5072736;28;20384;-73
2023/09/16 11:49:05;;;;;;;;;;;30.50;99.90;;;;;;5072314;28;19916;-72
2023/09/16 11:51:38;;;;;;;;;;;30.30;99.90;;;;;;5071550;28;19909;-73
2023/09/16 11:54:04;;;;;;;;;;;30.10;99.90;;;;;;5071836;28;19909;-72
2023/09/16 11:56:31;;;;;;;;;;;30.00;99.90;;;;;;5072552;28;19917;-72
2023/09/16 11:59:00;;;;;;;;;;;30.10;99.90;;;;;;5071960;28;19908;-72
2023/09/16 12:01:29;;;;;;;;;;;30.20;99.90;;;;;;5072412;28;19916;-73
2023/09/16 12:03:55;;;;;;;;;;;30.30;99.90;;;;;;5071754;28;20335;-72
2023/09/16 12:06:24;;;;;;;;;;;29.90;99.90;;;;;;5071682;28;20262;-72
2023/09/16 12:08:50;;;;;;;;;;;30.00;99.90;;;;;;5071832;28;20003;-72
2023/09/16 12:11:15;;;;;;;;;;;30.10;99.90;;;;;;5071937;28;20003;-72
2023/09/16 12:13:41;;;;;;;;;;;29.90;99.90;;;;;;5074038;28;20335;-74
2023/09/16 12:16:09;;;;;;;;;;;29.80;99.90;;;;;;5076034;28;20396;-72
2023/09/16 12:18:36;;;;;;;;;;;30.00;99.90;;;;;;5076368;28;19909;-71
2023/09/16 12:21:05;;;;;;;;;;;30.20;99.90;;;;;;5057792;28;20007;-73
2023/09/16 12:23:31;;;;;;;;;;;30.40;99.90;;;;;;5076189;28;19915;-73
2023/09/16 12:26:00;;;;;;;;;;;29.90;99.90;;;;;;5058017;28;19912;-72
2023/09/16 12:28:27;;;;;;;;;;;30.00;99.90;;;;;;5076317;28;19908;-73
2023/09/16 12:30:55;;;;;;;;;;;30.10;99.90;;;;;;5075905;28;20300;-72
2023/09/16 12:33:21;;;;;;;;;;;30.20;99.90;;;;;;5075937;28;19909;-72
2023/09/16 12:35:47;;;;;;;;;;;30.60;99.90;;;;;;5075647;28;19931;-72
2023/09/16 12:38:17;;;;;;;;;;;30.90;99.90;;;;;;5075775;28;19916;-72
2023/09/16 12:40:44;;;;;;;;;;;31.20;99.90;;;;;;5076060;28;20383;-74
2023/09/16 12:43:11;;;;;;;;;;;31.40;99.90;;;;;;5075547;28;19995;-72
2023/09/16 12:45:37;;;;;;;;;;;31.80;99.90;;;;;;5076263;28;19912;-74
2023/09/16 12:48:04;;;;;;;;;;;31.30;99.90;;;;;;5075667;28;19913;-71
2023/09/16 12:50:30;;;;;;;;;;;31.50;99.90;;;;;;5057484;28;19913;-72
2023/09/16 12:52:56;;;;;;;;;;;31.10;99.90;;;;;;5075688;28;19908;-73
2023/09/16 12:55:28;;;;;;;;;;;31.50;99.90;;;;;;5075783;28;19954;-73
2023/09/16 12:57:54;;;;;;;;;;;31.70;99.90;;;;;;5075506;28;19916;-73
2023/09/16 13:00:20;;;;;;;;;;;31.90;99.90;;;;;;5057487;28;19958;-72
2023/09/16 13:02:46;;;;;;;;;;;32.00;99.90;;;;;;5057453;28;19923;-72
2023/09/16 13:05:18;;;;;;;;;;;31.90;99.90;;;;;;5075293;28;19908;-73
2023/09/16 13:07:48;;;;;;;;;;;31.50;99.90;;;;;;5075324;28;19974;-73
2023/09/16 13:10:14;;;;;;;;;;;31.50;99.90;;;;;;5057144;28;20011;-72
2023/09/16 13:12:43;;;;;;;;;;;31.70;99.90;;;;;;5057150;28;19999;-73
2023/09/16 13:15:13;;;;;;;;;;;31.10;99.90;;;;;;5074897;28;19973;-73
2023/09/16 13:17:40;;;;;;;;;;;30.90;99.90;;;;;;5075438;28;20050;-73
2023/09/16 13:20:15;;;;;;;;;;;30.80;99.90;;;;;;5075193;28;19920;-72
2023/09/16 13:22:41;;;;;;;;;;;30.50;99.90;;;;;;5074932;28;19909;-72
2023/09/16 13:25:26;;;;;;;;;;;30.30;99.90;;;;;;5074998;28;20236;-72
2023/09/16 13:27:51;;;;;;;;;;;30.10;99.90;;;;;;5075284;28;20039;-73
2023/09/16 13:30:26;;;;;;;;;;;30.20;99.90;;;;;;5075073;28;20014;-72
2023/09/16 13:32:52;;;;;;;;;;;30.20;99.90;;;;;;5056848;28;19908;-73
2023/09/16 13:35:21;;;;;;;;;;;30.30;99.90;;;;;;5074768;28;20076;-73
2023/09/16 13:37:48;;;;;;;;;;;30.10;99.90;;;;;;5056643;28;19923;-73
2023/09/16 13:40:15;;;;;;;;;;;30.20;99.90;;;;;;5074824;28;19908;-73
2023/09/16 13:42:41;;;;;;;;;;;30.50;99.90;;;;;;5056531;28;20356;-73
2023/09/16 13:45:07;;;;;;;;;;;30.70;99.90;;;;;;5074637;28;20007;-73
2023/09/16 13:47:33;;;;;;;;;;;30.70;99.90;;;;;;5074668;28;19974;-73
2023/09/16 13:49:58;;;;;;;;;;;30.90;99.90;;;;;;5074662;28;20007;-73
2023/09/16 13:52:24;;;;;;;;;;;31.10;99.90;;;;;;5073913;28;19916;-74
2023/09/16 13:54:50;;;;;;;;;;;31.60;99.90;;;;;;5074270;28;19908;-72
2023/09/16 13:57:16;;;;;;;;;;;31.20;99.90;;;;;;5073821;28;19939;-73
2023/09/16 13:59:42;;;;;;;;;;;31.40;99.90;;;;;;5073816;28;19913;-73
2023/09/16 14:02:09;;;;;;;;;;;31.60;99.90;;;;;;5073716;28;19916;-73
2023/09/16 14:04:35;;;;;;;;;;;31.70;99.90;;;;;;5074050;28;19909;-73
2023/09/16 14:07:01;;;;;;;;;;;31.40;99.90;;;;;;5073784;28;19953;-73
2023/09/16 14:09:27;;;;;;;;;;;31.30;99.90;;;;;;5074031;28;19909;-73
2023/09/16 14:11:53;;;;;;;;;;;31.50;99.90;;;;;;5073484;28;20361;-73